Time;durP1;ratioP1;P1;durP2;ratioP2;P2;SDS_P1;SDS_P2;PMS_P1;PMS_P2;Temp;Humidity;BMP_temperature;BMP_pressure;BME280_temperature;BME280_humidity;BME280_pressure;Samples;Min_cycle;Max_cycle;Signal;HPM_P1;HPM_P2
2020/12/06 00:01:10;;;;;;;30.95;19.77;;;;;;;3.22;78.21;100442.34;10134280;28;20074;-69
2020/12/06 00:06:06;;;;;;;36.30;20.63;;;;;;;3.22;78.06;100445.06;10123179;28;20047;-71
2020/12/06 00:11:02;;;;;;;31.33;19.55;;;;;;;3.21;78.25;100443.47;10128040;28;20050;-71
2020/12/06 00:15:58;;;;;;;31.10;19.40;;;;;;;3.24;78.35;100437.50;10128493;28;20046;-71
2020/12/06 00:20:54;;;;;;;33.38;20.42;;;;;;;3.25;78.64;100445.34;10117417;28;20047;-71
2020/12/06 00:25:50;;;;;;;33.78;20.58;;;;;;;3.29;77.77;100418.56;10106906;28;20510;-70
2020/12/06 00:30:46;;;;;;;31.75;19.13;;;;;;;3.27;77.16;100399.09;10117703;28;20518;-71
2020/12/06 00:35:42;;;;;;;31.80;20.13;;;;;;;3.17;77.76;100399.97;10103638;28;20046;-71
2020/12/06 00:40:38;;;;;;;31.67;19.90;;;;;;;3.17;77.71;100400.75;10133945;28;20498;-70
2020/12/06 00:45:34;;;;;;;34.42;21.13;;;;;;;3.14;78.03;100395.91;10119155;28;20477;-69
2020/12/06 00:50:30;;;;;;;31.40;19.83;;;;;;;3.14;77.90;100385.13;10116448;28;20058;-68
2020/12/06 00:55:26;;;;;;;32.38;19.98;;;;;;;3.19;78.16;100356.47;10122232;28;20058;-69
2020/12/06 01:00:22;;;;;;;32.53;20.40;;;;;;;3.25;78.11;100333.72;10113803;28;20463;-70
2020/12/06 01:05:18;;;;;;;32.70;19.67;;;;;;;3.09;78.04;100338.41;10122163;28;20053;-68
2020/12/06 01:10:15;;;;;;;34.65;20.95;;;;;;;3.17;77.66;100357.53;10122648;28;20055;-70
2020/12/06 01:15:11;;;;;;;30.95;19.35;;;;;;;3.16;78.31;100393.75;10123899;28;20043;-71
2020/12/06 01:20:07;;;;;;;31.42;19.27;;;;;;;3.19;78.26;100416.69;10123406;28;20050;-70
2020/12/06 01:25:05;;;;;;;31.65;18.75;;;;;;;3.17;78.02;100408.88;10115018;28;20043;-71
2020/12/06 01:30:05;;;;;;;33.47;21.10;;;;;;;3.15;77.51;100408.31;10124652;28;20133;-71
2020/12/06 01:35:03;;;;;;;29.45;19.23;;;;;;;3.21;78.30;100416.44;10120256;28;20049;-71
2020/12/06 01:39:59;;;;;;;34.47;20.42;;;;;;;3.08;78.84;100413.22;10124515;28;20556;-69
2020/12/06 01:44:59;;;;;;;28.52;18.75;;;;;;;3.20;78.65;100393.19;10122655;28;20391;-72
2020/12/06 01:49:57;;;;;;;31.92;19.50;;;;;;;3.31;78.34;100389.38;10120941;28;20054;-71
2020/12/06 01:54:53;;;;;;;30.55;19.58;;;;;;;3.27;78.34;100445.88;10093671;28;20836;-70
2020/12/06 01:59:49;;;;;;;35.47;21.05;;;;;;;3.18;78.65;100436.72;10125223;28;20128;-70
2020/12/06 02:04:45;;;;;;;31.90;19.63;;;;;;;3.23;78.66;100441.28;10118529;28;20050;-70
2020/12/06 02:09:44;;;;;;;30.42;19.02;;;;;;;3.27;78.40;100426.97;10120281;28;20068;-71
2020/12/06 02:14:47;;;;;;;33.25;20.35;;;;;;;3.23;78.72;100415.06;10130233;28;20163;-70
2020/12/06 02:19:43;;;;;;;29.10;20.45;;;;;;;3.36;78.24;100408.25;10134940;28;20395;-71
2020/12/06 02:24:39;;;;;;;32.17;20.38;;;;;;;3.44;78.22;100405.00;10119973;28;20563;-69
2020/12/06 02:29:35;;;;;;;35.20;21.70;;;;;;;3.44;78.27;100396.88;10124870;28;20050;-70
2020/12/06 02:34:31;;;;;;;37.60;20.75;;;;;;;3.40;77.88;100392.31;10138167;28;20458;-70
2020/12/06 02:39:27;;;;;;;34.85;19.90;;;;;;;3.40;78.29;100382.28;10123731;28;20066;-70
2020/12/06 02:44:23;;;;;;;32.05;19.70;;;;;;;3.45;77.64;100386.88;10130004;28;20038;-70
2020/12/06 02:49:19;;;;;;;29.23;18.85;;;;;;;3.42;78.16;100373.91;10137302;28;20502;-70
2020/12/06 02:54:15;;;;;;;32.42;18.33;;;;;;;3.36;78.55;100373.13;10123504;28;20050;-71
2020/12/06 02:59:12;;;;;;;29.38;19.35;;;;;;;3.49;77.76;100386.03;10130853;28;20051;-71
2020/12/06 03:04:08;;;;;;;31.35;19.67;;;;;;;3.49;77.91;100399.56;10143491;28;20112;-70
2020/12/06 03:09:04;;;;;;;31.65;19.20;;;;;;;3.53;77.87;100410.63;10135024;28;20046;-70
2020/12/06 03:14:00;;;;;;;30.58;17.95;;;;;;;3.58;78.19;100422.22;10131554;28;20423;-70
2020/12/06 03:18:56;;;;;;;32.70;18.77;;;;;;;3.61;77.76;100414.63;10133558;28;20042;-69
2020/12/06 03:23:53;;;;;;;31.45;19.02;;;;;;;3.63;78.53;100404.34;10128286;28;20493;-70
2020/12/06 03:28:49;;;;;;;29.60;18.88;;;;;;;3.67;78.43;100416.25;10131171;28;20498;-70
2020/12/06 03:33:45;;;;;;;32.70;20.10;;;;;;;3.71;77.98;100409.16;10132996;28;20060;-70
2020/12/06 03:38:41;;;;;;;31.52;20.33;;;;;;;3.73;77.77;100401.56;10132718;28;20046;-70
2020/12/06 03:43:37;;;;;;;30.52;19.50;;;;;;;3.70;78.44;100385.91;10128259;28;20039;-71
2020/12/06 03:48:33;;;;;;;30.50;18.90;;;;;;;3.71;78.65;100371.31;10135773;28;20051;-69
2020/12/06 03:53:29;;;;;;;29.35;20.52;;;;;;;3.79;78.29;100373.44;10137986;28;20054;-70
2020/12/06 03:58:25;;;;;;;31.95;19.40;;;;;;;3.80;78.57;100369.63;10124371;28;20058;-71
2020/12/06 04:03:21;;;;;;;32.30;20.80;;;;;;;3.84;78.96;100388.81;10130433;28;20097;-70
2020/12/06 04:08:18;;;;;;;31.10;21.17;;;;;;;3.88;78.80;100371.75;10136372;28;20060;-71
2020/12/06 04:13:14;;;;;;;30.35;20.42;;;;;;;3.86;79.06;100346.88;10132088;28;20097;-70
2020/12/06 04:18:10;;;;;;;32.92;21.25;;;;;;;3.94;78.73;100338.13;10133821;28;20060;-70
2020/12/06 04:23:06;;;;;;;32.72;22.02;;;;;;;3.93;78.79;100314.91;10130749;28;20043;-69
2020/12/06 04:28:02;;;;;;;36.13;23.15;;;;;;;3.96;79.04;100327.84;10129304;28;20054;-70
2020/12/06 04:32:59;;;;;;;40.97;24.15;;;;;;;3.92;79.81;100310.59;10124176;28;20133;-70
2020/12/06 04:37:55;;;;;;;36.80;22.80;;;;;;;4.08;79.31;100310.44;10143724;28;20081;-70
2020/12/06 04:42:51;;;;;;;37.58;23.45;;;;;;;4.10;79.24;100321.78;10112678;28;20054;-71
2020/12/06 05:03:27;;;;;;;35.92;23.35;;;;;;;4.27;78.26;100314.06;10192315;23;20042;-70
2020/12/06 05:08:25;;;;;;;36.13;20.27;;;;;;;4.20;78.70;100289.22;10159959;28;20057;-72
2020/12/06 05:13:21;;;;;;;24.48;15.63;;;;;;;4.31;78.47;100282.59;10130139;28;20043;-72
2020/12/06 05:23:29;;;;;;;40.88;23.80;;;;;;;4.28;78.81;100302.13;10686634;23;20134;-71
2020/12/06 05:28:25;;;;;;;40.28;24.20;;;;;;;4.31;79.12;100298.03;10093011;28;20059;-69
2020/12/06 05:33:21;;;;;;;36.28;22.20;;;;;;;4.36;79.02;100300.69;10096362;28;20046;-71
2020/12/06 05:38:17;;;;;;;40.08;23.98;;;;;;;4.40;78.85;100290.91;10092414;28;20138;-70
2020/12/06 05:43:16;;;;;;;36.95;22.98;;;;;;;4.41;78.85;100282.53;10089920;28;20043;-69
2020/12/06 05:48:12;;;;;;;35.45;22.55;;;;;;;4.42;79.00;100277.91;10084810;28;20074;-70
2020/12/06 05:53:09;;;;;;;38.92;24.60;;;;;;;4.46;79.04;100278.16;10099830;28;20053;-70
2020/12/06 05:58:05;;;;;;;39.42;24.67;;;;;;;4.48;78.94;100271.34;10097034;28;20180;-68
2020/12/06 06:03:01;;;;;;;33.45;22.23;;;;;;;4.41;79.63;100269.00;10101088;28;20105;-69
2020/12/06 06:08:00;;;;;;;36.97;23.75;;;;;;;4.46;79.56;100267.31;10098381;28;20150;-72
2020/12/06 06:13:02;;;;;;;36.13;23.23;;;;;;;4.51;79.59;100259.13;10106936;28;20054;-72
2020/12/06 06:18:02;;;;;;;35.80;23.17;;;;;;;4.53;79.63;100251.53;10104897;28;20050;-71
2020/12/06 06:23:00;;;;;;;38.13;23.60;;;;;;;4.39;79.88;100246.00;10104971;28;20050;-71
2020/12/06 06:27:57;;;;;;;28.58;17.85;;;;;;;4.52;80.36;100239.06;10103807;28;20051;-71
2020/12/06 06:32:54;;;;;;;34.50;22.67;;;;;;;4.62;79.57;100239.78;10100362;28;20448;-71
2020/12/06 06:37:51;;;;;;;37.17;23.27;;;;;;;4.61;79.82;100231.94;10093978;28;20050;-72
2020/12/06 06:42:47;;;;;;;40.28;24.70;;;;;;;4.67;79.78;100235.41;10095001;28;20049;-72
2020/12/06 06:47:44;;;;;;;36.72;23.17;;;;;;;4.69;79.69;100234.00;10096000;28;20585;-72
2020/12/06 06:52:57;;;;;;;41.80;26.70;;;;;;;4.74;80.15;100214.97;11131892;23;20046;-71
2020/12/06 07:03:30;;;;;;;40.17;23.02;;;;;;;4.81;80.36;100228.97;10376211;23;21228;-70
2020/12/06 07:08:26;;;;;;;39.45;24.38;;;;;;;4.88;80.14;100230.53;10192655;28;20055;-72
2020/12/06 07:13:22;;;;;;;46.08;24.42;;;;;;;4.90;80.29;100233.72;10183154;28;20060;-72
2020/12/06 07:18:18;;;;;;;42.33;24.67;;;;;;;4.89;80.31;100232.91;10162890;28;20442;-72
2020/12/06 07:23:14;;;;;;;41.08;27.20;;;;;;;4.90;80.85;100228.31;10165191;28;20527;-72
2020/12/06 07:28:10;;;;;;;39.88;25.45;;;;;;;4.91;80.74;100219.09;10155072;28;20050;-72
2020/12/06 07:33:06;;;;;;;46.25;28.00;;;;;;;4.88;80.95;100204.22;10164543;28;20108;-72
2020/12/06 07:38:08;;;;;;;38.60;25.85;;;;;;;5.00;80.72;100206.50;10167955;28;20042;-72
2020/12/06 07:43:12;;;;;;;43.47;23.93;;;;;;;4.97;80.88;100202.47;10113043;28;20507;-71
2020/12/06 07:48:19;;;;;;;38.43;23.40;;;;;;;5.07;78.55;100196.91;10123097;28;20142;-71
2020/12/06 07:53:15;;;;;;;34.63;21.70;;;;;;;5.11;79.00;100194.41;10123475;28;20047;-71
2020/12/06 07:58:18;;;;;;;40.00;26.30;;;;;;;5.17;80.55;100195.94;10120879;28;20046;-70
2020/12/06 08:03:15;;;;;;;37.22;22.65;;;;;;;5.24;81.09;100212.66;10114966;28;20521;-71
2020/12/06 08:08:19;;;;;;;38.25;24.33;;;;;;;5.21;80.43;100190.75;10136430;28;20051;-72
2020/12/06 08:13:16;;;;;;;41.65;25.50;;;;;;;5.26;81.36;100213.16;10131605;28;20104;-72
2020/12/06 08:18:17;;;;;;;49.17;27.73;;;;;;;5.11;82.12;100201.75;10113232;28;20495;-72
2020/12/06 08:23:13;;;;;;;43.72;25.65;;;;;;;5.25;81.52;100186.34;10117623;28;20047;-72
2020/12/06 08:28:09;;;;;;;40.42;25.55;;;;;;;5.29;81.70;100200.91;10132295;28;20058;-72
2020/12/06 08:33:05;;;;;;;40.67;25.40;;;;;;;5.36;81.63;100197.81;10128294;28;20054;-73
2020/12/06 08:38:13;;;;;;;45.63;26.80;;;;;;;5.36;82.08;100203.25;10136600;28;20070;-72
2020/12/06 08:43:10;;;;;;;40.15;24.15;;;;;;;5.43;81.32;100192.81;10117497;28;20050;-73
2020/12/06 08:48:06;;;;;;;43.67;25.67;;;;;;;5.40;81.74;100174.44;10140079;28;20081;-72
2020/12/06 08:53:02;;;;;;;43.42;26.33;;;;;;;5.41;81.29;100157.91;10115858;28;20521;-72
2020/12/06 08:57:58;;;;;;;41.17;26.67;;;;;;;5.45;81.11;100136.41;10125033;28;20117;-72
2020/12/06 09:03:01;;;;;;;47.13;28.55;;;;;;;5.17;82.82;100130.09;10110935;28;20137;-72
2020/12/06 09:07:57;;;;;;;45.03;26.30;;;;;;;5.31;82.19;100149.13;10118989;28;20073;-72
2020/12/06 09:12:53;;;;;;;42.17;25.08;;;;;;;5.40;82.41;100144.63;10131076;28;20049;-72
2020/12/06 09:17:49;;;;;;;40.88;25.83;;;;;;;5.38;82.29;100146.81;10122618;28;20050;-72
2020/12/06 09:22:45;;;;;;;44.45;25.75;;;;;;;5.47;82.31;100139.63;10119146;28;20042;-71
2020/12/06 09:27:41;;;;;;;43.63;24.38;;;;;;;5.50;82.37;100133.63;10132221;28;20050;-72
2020/12/06 09:32:37;;;;;;;37.95;24.83;;;;;;;5.58;82.46;100137.53;10123686;28;20055;-72
2020/12/06 09:37:33;;;;;;;39.28;25.67;;;;;;;5.69;81.79;100137.06;10137201;28;20144;-71
2020/12/06 09:42:29;;;;;;;44.50;26.00;;;;;;;5.78;81.96;100128.22;10140594;28;20453;-72
2020/12/06 09:47:25;;;;;;;40.88;25.45;;;;;;;5.84;81.90;100106.13;10130818;28;20062;-72
2020/12/06 09:52:21;;;;;;;27.75;15.98;;;;;;;5.80;81.57;100066.34;10139611;28;20450;-72
2020/12/06 09:57:17;;;;;;;38.22;23.33;;;;;;;5.84;80.99;100067.34;10135108;28;20042;-72
2020/12/06 10:02:13;;;;;;;38.58;23.85;;;;;;;5.90;81.13;100066.94;10118758;28;20422;-72
2020/12/06 10:07:09;;;;;;;43.20;25.67;;;;;;;5.90;80.66;100082.44;10128223;28;20054;-72
2020/12/06 10:12:05;;;;;;;39.00;24.63;;;;;;;5.99;80.89;100088.78;10139891;28;20104;-72
2020/12/06 10:17:01;;;;;;;41.53;25.08;;;;;;;5.97;81.60;100085.56;10138920;28;20133;-72
2020/12/06 10:21:57;;;;;;;41.78;26.85;;;;;;;6.00;80.82;100071.38;10132985;28;20052;-72
2020/12/06 10:26:54;;;;;;;40.83;26.13;;;;;;;6.14;80.84;100097.72;10128744;28;20050;-70
2020/12/06 10:31:54;;;;;;;41.70;25.80;;;;;;;6.23;80.29;100093.19;10114638;28;20054;-72
2020/12/06 10:36:55;;;;;;;44.38;26.00;;;;;;;6.26;79.68;100084.41;10120372;28;20549;-72
2020/12/06 10:41:53;;;;;;;45.17;27.80;;;;;;;6.20;79.48;100080.22;10122691;28;20066;-71
2020/12/06 10:46:50;;;;;;;45.47;28.15;;;;;;;6.28;79.49;100087.63;10131502;28;20465;-73
2020/12/06 10:51:48;;;;;;;40.15;25.17;;;;;;;6.30;79.08;100101.72;10130272;28;20058;-71
2020/12/06 10:56:44;;;;;;;43.10;25.98;;;;;;;6.29;79.23;100091.97;10128580;28;20135;-73
2020/12/06 11:01:39;;;;;;;42.20;27.88;;;;;;;6.29;79.21;100094.69;10125494;28;20825;-74
2020/12/06 11:06:36;;;;;;;42.25;24.67;;;;;;;6.26;78.94;100079.00;10131301;28;20069;-74
2020/12/06 11:11:32;;;;;;;46.67;27.52;;;;;;;6.30;78.81;100058.28;10129181;28;20058;-72
2020/12/06 11:16:28;;;;;;;39.13;24.48;;;;;;;6.38;78.61;100054.81;10140414;28;20061;-72
2020/12/06 11:21:24;;;;;;;45.75;28.10;;;;;;;6.32;78.80;100061.50;10132212;28;20062;-74
2020/12/06 11:26:20;;;;;;;38.20;23.05;;;;;;;6.33;78.66;100044.09;10138454;28;20850;-71
2020/12/06 11:37:25;;;;;;;39.75;24.95;;;;;;;6.41;77.89;100035.22;10083355;28;20137;-72
2020/12/06 11:42:22;;;;;;;42.90;27.17;;;;;;;6.30;78.27;100047.41;10129974;28;20072;-72
2020/12/06 11:47:22;;;;;;;48.05;28.40;;;;;;;6.28;78.41;100044.19;10111767;28;20105;-72
2020/12/06 11:52:18;;;;;;;49.00;28.45;;;;;;;6.27;78.13;100042.59;10126134;28;20092;-74
2020/12/06 11:57:14;;;;;;;44.33;27.23;;;;;;;6.25;77.71;100014.97;10130249;28;20113;-72
2020/12/06 12:02:10;;;;;;;46.95;28.75;;;;;;;6.31;78.09;100002.84;10118953;28;20081;-72
2020/12/06 12:07:06;;;;;;;36.13;21.40;;;;;;;6.18;78.59;99968.44;10128811;28;20046;-73
2020/12/06 12:12:02;;;;;;;37.58;23.17;;;;;;;6.26;78.50;99962.25;10121704;28;20061;-72
2020/12/06 12:16:58;;;;;;;43.40;26.98;;;;;;;6.26;78.65;99959.53;10121430;28;20072;-72
2020/12/06 12:21:54;;;;;;;43.80;26.88;;;;;;;6.28;78.66;99962.75;10102653;28;20066;-73
2020/12/06 12:26:50;;;;;;;48.45;28.40;;;;;;;6.23;78.21;99949.31;10136116;28;20046;-71
2020/12/06 12:31:47;;;;;;;43.70;25.63;;;;;;;6.24;77.68;99950.91;10123968;28;20055;-72
2020/12/06 12:36:44;;;;;;;47.55;29.75;;;;;;;6.27;77.93;99928.59;10128132;28;20051;-72
2020/12/06 12:41:41;;;;;;;46.85;26.67;;;;;;;6.31;78.15;99935.81;10126039;28;20489;-73
2020/12/06 12:46:40;;;;;;;46.60;28.80;;;;;;;6.23;77.79;99927.59;10114714;28;20054;-71
2020/12/06 12:51:40;;;;;;;45.47;27.73;;;;;;;6.09;78.01;99923.00;10125890;28;20050;-72
2020/12/06 12:56:36;;;;;;;48.95;29.33;;;;;;;6.13;78.58;99911.53;10116349;28;20070;-73
2020/12/06 13:02:02;;;;;;;46.83;29.40;;;;;;;6.06;78.54;99925.53;10105873;28;20042;-71
2020/12/06 13:07:22;;;;;;;49.17;27.73;;;;;;;6.14;78.20;99929.44;10120039;28;20047;-73
2020/12/06 13:12:18;;;;;;;44.15;28.88;;;;;;;6.16;77.91;99913.66;10116877;28;20058;-72
2020/12/06 13:17:43;;;;;;;;;;;;;;;;;;;;;
2020/12/06 13:23:18;;;;;;;45.28;27.35;;;;;;;6.21;78.41;99908.09;10107305;28;20042;-72
2020/12/06 13:28:16;;;;;;;45.85;29.67;;;;;;;6.23;77.74;99916.72;10100873;28;20074;-71
2020/12/06 13:33:39;;;;;;;47.38;29.13;;;;;;;6.18;77.86;99931.22;10101990;28;20054;-72
2020/12/06 13:38:50;;;;;;;45.83;28.08;;;;;;;6.05;77.92;99916.56;10091341;28;20055;-71
2020/12/06 13:43:48;;;;;;;45.47;28.63;;;;;;;6.11;78.36;99920.78;10116545;28;20056;-71
2020/12/06 13:55:09;;;;;;;47.78;28.13;;;;;;;5.97;78.20;99928.19;10115726;28;20529;-72
2020/12/06 14:00:23;;;;;;;48.15;27.15;;;;;;;6.01;78.10;99948.19;10124180;28;20061;-72
2020/12/06 14:05:21;;;;;;;41.65;26.45;;;;;;;6.04;78.01;99952.97;10123551;28;20090;-72
2020/12/06 14:10:18;;;;;;;47.88;28.20;;;;;;;6.07;78.03;99968.63;10121301;28;20920;-72
2020/12/06 14:22:01;;;;;;;44.15;26.73;;;;;;;5.93;78.75;99940.72;9958040;29;20059;-72
2020/12/06 14:27:25;;;;;;;46.30;27.85;;;;;;;5.87;78.26;99952.78;10098124;28;20057;-72
2020/12/06 14:33:12;;;;;;;;;;;;;;;;;;;;;
2020/12/06 14:38:32;;;;;;;45.13;26.85;;;;;;;5.77;78.87;99969.28;10124167;28;20054;-73
2020/12/06 14:43:43;;;;;;;44.08;26.48;;;;;;;5.79;78.96;99967.06;10130307;28;20049;-72
2020/12/06 14:48:40;;;;;;;50.83;27.77;;;;;;;5.80;78.74;99960.53;10125179;28;20132;-72
2020/12/06 14:53:36;;;;;;;47.35;27.15;;;;;;;5.81;78.45;99954.00;10111020;28;21054;-73
2020/12/06 14:58:32;;;;;;;44.53;27.98;;;;;;;5.70;78.78;99948.78;10124457;28;20054;-72
2020/12/06 15:03:28;;;;;;;48.00;28.58;;;;;;;5.66;78.41;99942.38;10131081;28;20058;-72
2020/12/06 15:08:25;;;;;;;44.80;26.98;;;;;;;5.70;78.61;99943.38;10099162;28;20541;-73
2020/12/06 15:13:33;;;;;;;44.72;28.60;;;;;;;5.67;78.81;99943.19;10108459;28;20054;-73
2020/12/06 15:19:00;;;;;;;49.70;29.38;;;;;;;5.72;78.61;99923.28;10082576;28;20148;-73
2020/12/06 15:25:07;;;;;;;44.25;25.90;;;;;;;5.68;78.57;99907.59;10105097;28;21046;-72
2020/12/06 15:36:19;;;;;;;46.28;27.88;;;;;;;5.63;79.07;99907.72;10082158;28;20074;-73
2020/12/06 15:41:52;;;;;;;46.00;27.33;;;;;;;5.59;78.76;99914.88;10111704;28;20081;-74
2020/12/06 15:47:36;;;;;;;49.42;30.25;;;;;;;5.61;78.60;99917.28;10118728;28;20058;-74
2020/12/06 15:52:48;;;;;;;47.33;27.80;;;;;;;5.53;78.39;99905.25;10116722;28;20064;-74
2020/12/06 15:57:50;;;;;;;44.30;27.58;;;;;;;5.43;78.39;99900.00;10126547;28;20454;-73
2020/12/06 16:03:22;;;;;;;47.40;28.48;;;;;;;5.37;78.30;99901.25;10136385;28;20055;-74
2020/12/06 16:08:18;;;;;;;45.50;28.65;;;;;;;5.36;78.51;99891.50;10112487;28;20159;-74
2020/12/06 16:13:56;;;;;;;47.22;27.75;;;;;;;5.27;78.43;99903.06;10138232;28;20061;-73
2020/12/06 16:19:46;;;;;;;40.08;25.48;;;;;;;5.16;78.66;99896.22;10031999;28;20647;-72
2020/12/06 16:25:17;;;;;;;51.00;27.85;;;;;;;5.06;78.68;99912.69;10089349;28;20093;-72
2020/12/06 16:31:08;;;;;;;45.55;27.60;;;;;;;5.06;78.31;99915.41;10104168;28;20069;-72
2020/12/06 16:36:26;;;;;;;47.35;28.88;;;;;;;4.94;78.52;99909.66;10073420;28;20058;-71
2020/12/06 16:41:22;;;;;;;50.38;28.80;;;;;;;4.91;78.70;99912.97;10140183;28;20429;-71
2020/12/06 16:46:18;;;;;;;47.92;27.45;;;;;;;4.87;78.44;99925.50;10128221;28;20074;-71
2020/12/06 16:51:14;;;;;;;50.50;28.50;;;;;;;4.80;78.47;99925.91;10137388;28;20050;-71
2020/12/06 16:56:54;;;;;;;;;;;;;;;;;;;;;
2020/12/06 17:03:08;;;;;;;49.07;28.63;;;;;;;4.66;79.00;99939.41;10091500;28;20130;-76
2020/12/06 17:08:19;;;;;;;46.20;28.63;;;;;;;4.62;78.52;99919.47;10084006;28;20077;-75
2020/12/06 17:20:15;;;;;;;51.42;29.80;;;;;;;4.59;79.12;99936.28;9985063;29;20043;-76
2020/12/06 17:26:09;;;;;;;46.50;27.75;;;;;;;4.53;78.48;99932.06;9950522;29;20235;-77
2020/12/06 17:31:41;;;;;;;51.78;30.63;;;;;;;4.51;78.39;99929.66;10465337;23;20054;-75
2020/12/06 17:36:46;;;;;;;58.00;31.83;;;;;;;4.47;78.84;99927.84;10085786;28;20212;-72
2020/12/06 18:10:05;;;;;;;55.53;31.55;;;;;;;4.51;79.52;99918.03;10165822;28;20113;-74
2020/12/06 18:15:02;;;;;;;47.95;30.35;;;;;;;4.50;79.63;99898.25;10118242;28;20631;-73
2020/12/06 18:20:21;;;;;;;54.67;32.30;;;;;;;4.57;79.84;99895.16;10133851;28;20085;-73
2020/12/06 18:25:18;;;;;;;58.42;33.63;;;;;;;4.63;79.74;99899.41;10131532;28;20104;-73
2020/12/06 18:30:17;;;;;;;57.75;31.73;;;;;;;4.62;79.70;99900.50;10134490;28;20101;-73
2020/12/06 18:35:26;;;;;;;52.05;30.75;;;;;;;4.65;80.12;99902.63;10110158;28;20061;-73
2020/12/06 18:40:24;;;;;;;51.35;30.27;;;;;;;4.68;80.45;99896.59;10110729;28;20139;-73
2020/12/06 18:45:25;;;;;;;54.13;32.53;;;;;;;4.64;80.16;99877.44;10130749;28;20069;-73
2020/12/06 18:50:23;;;;;;;49.17;32.10;;;;;;;4.70;80.46;99866.50;10118297;28;20153;-73
2020/12/06 18:55:20;;;;;;;56.65;33.13;;;;;;;4.71;80.39;99884.34;10124823;28;20057;-73
2020/12/06 19:00:16;;;;;;;50.40;30.63;;;;;;;4.76;80.91;99873.44;10126052;28;20081;-74
2020/12/06 19:05:26;;;;;;;50.88;30.80;;;;;;;4.80;80.99;99855.47;10128374;28;20614;-74
2020/12/06 19:16:48;;;;;;;49.63;30.50;;;;;;;4.85;80.87;99869.75;10122443;28;20491;-74
2020/12/06 19:21:44;;;;;;;52.80;32.28;;;;;;;4.88;80.81;99862.91;10119535;28;20101;-74
2020/12/06 19:26:42;;;;;;;47.53;29.08;;;;;;;4.97;80.62;99860.31;10122467;28;20554;-74
2020/12/06 19:31:45;;;;;;;53.53;32.33;;;;;;;4.94;81.37;99844.66;10124619;28;20065;-74
2020/12/06 19:36:42;;;;;;;53.40;31.52;;;;;;;5.05;80.47;99840.63;10093665;28;20500;-68
2020/12/06 19:42:12;;;;;;;51.67;33.08;;;;;;;5.03;80.83;99826.59;10133460;28;20087;-74
2020/12/06 19:47:10;;;;;;;59.03;35.38;;;;;;;5.07;80.71;99816.75;10107361;28;20055;-74
2020/12/06 19:52:07;;;;;;;55.55;32.00;;;;;;;5.13;81.06;99830.97;10124687;28;20061;-74
2020/12/06 19:57:06;;;;;;;52.65;31.42;;;;;;;5.13;81.42;99836.41;10119834;28;20638;-74
2020/12/06 20:02:10;;;;;;;53.65;32.35;;;;;;;5.12;81.00;99824.78;10266418;23;20050;-82
2020/12/06 20:07:07;;;;;;;50.70;29.25;;;;;;;5.13;81.05;99823.69;10103567;28;20050;-81
2020/12/06 20:12:05;;;;;;;51.58;30.73;;;;;;;5.16;81.59;99825.78;10125040;28;20054;-81
2020/12/06 20:17:01;;;;;;;52.53;33.20;;;;;;;5.17;81.55;99811.09;10111142;28;20057;-81
2020/12/06 20:21:59;;;;;;;54.35;32.63;;;;;;;5.20;81.13;99815.94;10128883;28;20057;-81
2020/12/06 20:26:57;;;;;;;52.47;31.77;;;;;;;5.20;81.56;99826.78;10130569;28;20490;-81
2020/12/06 20:31:54;;;;;;;53.10;33.38;;;;;;;5.28;81.46;99817.91;10116690;28;20178;-81
2020/12/06 20:36:50;;;;;;;50.00;29.80;;;;;;;5.28;81.66;99796.22;10115501;28;20392;-79
2020/12/06 20:41:49;;;;;;;51.22;31.80;;;;;;;5.27;81.42;99789.22;10139204;28;20129;-80
2020/12/06 20:46:46;;;;;;;49.85;31.13;;;;;;;5.30;81.42;99787.00;10102310;28;20055;-80
2020/12/06 20:51:45;;;;;;;48.95;30.65;;;;;;;5.28;81.34;99801.66;10129462;28;20074;-75
2020/12/06 20:56:45;;;;;;;55.33;33.67;;;;;;;5.29;81.12;99780.75;10111565;28;20051;-78
2020/12/06 21:01:44;;;;;;;45.72;29.40;;;;;;;5.32;81.41;99773.97;10136410;28;20081;-78
2020/12/06 21:06:40;;;;;;;52.38;32.22;;;;;;;5.33;80.98;99791.81;10106584;28;20145;-78
2020/12/06 21:11:37;;;;;;;52.97;31.02;;;;;;;5.34;81.23;99771.72;10132332;28;20658;-75
2020/12/06 21:16:33;;;;;;;46.50;29.33;;;;;;;5.33;80.58;99775.56;10109197;28;20059;-75
2020/12/06 21:21:40;;;;;;;51.58;31.30;;;;;;;5.27;80.69;99755.91;10120868;28;20113;-81
2020/12/06 21:26:39;;;;;;;48.65;30.55;;;;;;;5.26;81.25;99771.34;10113323;28;20105;-80
2020/12/06 21:31:36;;;;;;;49.53;30.65;;;;;;;5.21;81.41;99774.16;10132505;28;20050;-78
2020/12/06 21:36:35;;;;;;;49.60;30.20;;;;;;;5.20;81.21;99766.38;10121850;28;20058;-80
2020/12/06 21:41:32;;;;;;;47.13;30.30;;;;;;;5.23;81.36;99763.03;10128897;28;20061;-83
2020/12/06 21:46:29;;;;;;;47.75;29.27;;;;;;;5.21;80.88;99766.03;10113807;28;20074;-79
2020/12/06 21:51:31;;;;;;;45.58;28.58;;;;;;;5.13;81.11;99766.78;10125274;28;20065;-81
2020/12/06 21:56:28;;;;;;;43.22;29.30;;;;;;;5.19;81.57;99765.53;10124213;28;20058;-80
2020/12/06 22:01:24;;;;;;;45.13;26.85;;;;;;;5.15;81.45;99759.16;10124913;28;20051;-80
2020/12/06 22:06:21;;;;;;;38.95;25.23;;;;;;;5.17;81.57;99754.19;10112092;28;20061;-79
2020/12/06 22:11:17;;;;;;;43.90;27.27;;;;;;;5.15;81.72;99752.91;10128763;28;20047;-80
2020/12/06 22:16:13;;;;;;;41.45;25.50;;;;;;;5.14;81.49;99779.19;10116409;28;20514;-78
2020/12/06 22:21:09;;;;;;;37.20;24.05;;;;;;;5.12;81.82;99786.84;10123157;28;20074;-80
2020/12/06 22:26:05;;;;;;;42.38;25.15;;;;;;;5.03;81.32;99783.22;10114544;28;20181;-81
2020/12/06 22:31:01;;;;;;;38.83;24.77;;;;;;;5.01;81.31;99796.28;10123966;28;20050;-79
2020/12/06 22:35:58;;;;;;;40.58;24.77;;;;;;;5.01;81.64;99786.25;10120756;28;20051;-79
2020/12/06 22:40:54;;;;;;;42.63;24.45;;;;;;;4.99;81.12;99760.56;10133740;28;20059;-80
2020/12/06 22:45:51;;;;;;;39.42;25.23;;;;;;;5.02;81.84;99755.34;10120306;28;20161;-80
2020/12/06 22:50:47;;;;;;;39.90;24.33;;;;;;;5.02;82.07;99771.59;10134021;28;20054;-79
2020/12/06 22:55:43;;;;;;;39.97;23.75;;;;;;;5.07;82.23;99757.13;10122077;28;20511;-79
2020/12/06 23:00:45;;;;;;;41.08;26.50;;;;;;;5.09;83.06;99756.84;10127273;28;20050;-79
2020/12/06 23:05:41;;;;;;;40.30;25.42;;;;;;;5.19;83.02;99734.94;10117728;28;20051;-81
2020/12/06 23:10:37;;;;;;;39.42;24.95;;;;;;;5.27;83.14;99724.16;10123807;28;20051;-79
2020/12/06 23:15:34;;;;;;;37.92;23.85;;;;;;;5.28;83.14;99730.38;10123542;28;20051;-78
2020/12/06 23:20:30;;;;;;;41.05;25.42;;;;;;;5.23;83.53;99734.00;10133041;28;20101;-78
2020/12/06 23:25:28;;;;;;;37.33;23.25;;;;;;;5.30;82.73;99733.59;10140564;28;20140;-82
2020/12/06 23:30:26;;;;;;;45.28;25.77;;;;;;;5.26;83.15;99725.25;10134770;28;20113;-79
2020/12/06 23:35:22;;;;;;;38.95;24.48;;;;;;;5.31;83.15;99724.34;10126128;28;20133;-81
2020/12/06 23:40:20;;;;;;;38.60;23.40;;;;;;;5.25;82.97;99718.25;10124749;28;20073;-78
2020/12/06 23:45:17;;;;;;;41.40;23.63;;;;;;;5.28;83.33;99706.78;10130709;28;20484;-81
2020/12/06 23:50:13;;;;;;;39.20;25.73;;;;;;;5.31;83.53;99672.06;10125606;28;20069;-78
2020/12/06 23:55:09;;;;;;;41.83;26.40;;;;;;;5.28;83.24;99654.50;10123967;28;20051;-79
